sensor_id;sensor_type;location;lat;lon;timestamp;temperature;humidity
66184;DHT22;52989;48.796;9.806;2023-05-10T00:00:11;13.70;99.90
66184;DHT22;52989;48.796;9.806;2023-05-10T00:02:37;13.70;99.90
66184;DHT22;52989;48.796;9.806;2023-05-10T00:05:03;13.60;99.90
66184;DHT22;52989;48.796;9.806;2023-05-10T00:07:28;13.80;99.90
66184;DHT22;52989;48.796;9.806;2023-05-10T00:09:54;13.80;99.90
66184;DHT22;52989;48.796;9.806;2023-05-10T00:12:19;13.80;99.90
66184;DHT22;52989;48.796;9.806;2023-05-10T00:14:45;13.80;99.90
66184;DHT22;52989;48.796;9.806;2023-05-10T00:17:10;13.80;99.90
66184;DHT22;52989;48.796;9.806;2023-05-10T00:19:35;14.00;99.90
66184;DHT22;52989;48.796;9.806;2023-05-10T00:22:01;14.00;99.90
66184;DHT22;52989;48.796;9.806;2023-05-10T00:24:26;14.10;99.90
66184;DHT22;52989;48.796;9.806;2023-05-10T00:26:52;13.90;99.90
66184;DHT22;52989;48.796;9.806;2023-05-10T00:29:17;13.80;99.90
66184;DHT22;52989;48.796;9.806;2023-05-10T00:31:43;13.80;99.90
66184;DHT22;52989;48.796;9.806;2023-05-10T00:34:08;13.80;99.90
66184;DHT22;52989;48.796;9.806;2023-05-10T00:36:34;13.70;99.90
66184;DHT22;52989;48.796;9.806;2023-05-10T00:38:59;13.60;99.90
66184;DHT22;52989;48.796;9.806;2023-05-10T00:41:25;13.60;99.90
66184;DHT22;52989;48.796;9.806;2023-05-10T00:43:51;13.70;99.90
66184;DHT22;52989;48.796;9.806;2023-05-10T00:46:16;13.80;99.90
66184;DHT22;52989;48.796;9.806;2023-05-10T00:48:43;13.80;99.90
66184;DHT22;52989;48.796;9.806;2023-05-10T00:51:08;13.60;99.90
66184;DHT22;52989;48.796;9.806;2023-05-10T00:53:34;13.70;99.90
66184;DHT22;52989;48.796;9.806;2023-05-10T00:56:00;13.80;99.90
66184;DHT22;52989;48.796;9.806;2023-05-10T00:58:25;13.60;99.90
66184;DHT22;52989;48.796;9.806;2023-05-10T01:00:54;13.70;99.90
66184;DHT22;52989;48.796;9.806;2023-05-10T01:03:20;13.60;99.90
66184;DHT22;52989;48.796;9.806;2023-05-10T01:05:45;14.00;99.90
66184;DHT22;52989;48.796;9.806;2023-05-10T01:08:11;13.90;99.90
66184;DHT22;52989;48.796;9.806;2023-05-10T01:10:36;13.90;99.90
66184;DHT22;52989;48.796;9.806;2023-05-10T01:13:02;13.60;99.90
66184;DHT22;52989;48.796;9.806;2023-05-10T01:15:30;13.60;99.90
66184;DHT22;52989;48.796;9.806;2023-05-10T01:17:56;13.50;99.90
66184;DHT22;52989;48.796;9.806;2023-05-10T01:20:21;13.60;99.90
66184;DHT22;52989;48.796;9.806;2023-05-10T01:32:57;13.10;99.90
66184;DHT22;52989;48.796;9.806;2023-05-10T01:38:21;13.00;99.90
66184;DHT22;52989;48.796;9.806;2023-05-10T01:43:17;13.00;99.90
66184;DHT22;52989;48.796;9.806;2023-05-10T01:45:50;13.20;99.90
66184;DHT22;52989;48.796;9.806;2023-05-10T01:48:17;13.20;99.90
66184;DHT22;52989;48.796;9.806;2023-05-10T01:50:45;13.10;99.90
66184;DHT22;52989;48.796;9.806;2023-05-10T01:53:11;13.10;99.90
66184;DHT22;52989;48.796;9.806;2023-05-10T01:55:43;12.90;99.90
66184;DHT22;52989;48.796;9.806;2023-05-10T01:58:09;12.80;99.90
66184;DHT22;52989;48.796;9.806;2023-05-10T02:00:35;12.80;99.90
66184;DHT22;52989;48.796;9.806;2023-05-10T02:03:06;12.80;99.90
66184;DHT22;52989;48.796;9.806;2023-05-10T02:05:33;13.00;99.90
66184;DHT22;52989;48.796;9.806;2023-05-10T02:07:59;12.80;99.90
66184;DHT22;52989;48.796;9.806;2023-05-10T02:10:27;12.90;99.90
66184;DHT22;52989;48.796;9.806;2023-05-10T02:12:52;12.80;99.90
66184;DHT22;52989;48.796;9.806;2023-05-10T02:15:20;13.00;99.90
66184;DHT22;52989;48.796;9.806;2023-05-10T02:17:46;13.00;99.90
66184;DHT22;52989;48.796;9.806;2023-05-10T02:20:12;13.00;99.90
66184;DHT22;52989;48.796;9.806;2023-05-10T02:22:38;13.30;99.90
66184;DHT22;52989;48.796;9.806;2023-05-10T02:25:05;13.30;99.90
66184;DHT22;52989;48.796;9.806;2023-05-10T02:27:32;12.90;99.90
66184;DHT22;52989;48.796;9.806;2023-05-10T02:29:58;12.90;99.90
66184;DHT22;52989;48.796;9.806;2023-05-10T02:32:24;12.70;99.90
66184;DHT22;52989;48.796;9.806;2023-05-10T02:34:50;12.90;99.90
66184;DHT22;52989;48.796;9.806;2023-05-10T02:37:18;12.90;99.90
66184;DHT22;52989;48.796;9.806;2023-05-10T02:39:44;12.80;99.90
66184;DHT22;52989;48.796;9.806;2023-05-10T02:42:15;12.60;99.90
66184;DHT22;52989;48.796;9.806;2023-05-10T02:44:41;12.80;99.90
66184;DHT22;52989;48.796;9.806;2023-05-10T02:47:07;12.90;99.90
66184;DHT22;52989;48.796;9.806;2023-05-10T02:49:33;13.00;99.90
66184;DHT22;52989;48.796;9.806;2023-05-10T02:52:00;13.00;99.90
66184;DHT22;52989;48.796;9.806;2023-05-10T02:54:30;12.70;99.90
66184;DHT22;52989;48.796;9.806;2023-05-10T02:56:58;12.60;99.90
66184;DHT22;52989;48.796;9.806;2023-05-10T02:59:25;12.70;99.90
66184;DHT22;52989;48.796;9.806;2023-05-10T03:01:51;12.80;99.90
66184;DHT22;52989;48.796;9.806;2023-05-10T03:04:16;12.80;99.90
66184;DHT22;52989;48.796;9.806;2023-05-10T03:06:42;12.90;99.90
66184;DHT22;52989;48.796;9.806;2023-05-10T03:09:07;12.60;99.90
66184;DHT22;52989;48.796;9.806;2023-05-10T03:17:16;12.80;99.90
66184;DHT22;52989;48.796;9.806;2023-05-10T03:19:48;12.50;99.90
66184;DHT22;52989;48.796;9.806;2023-05-10T03:22:17;12.60;99.90
66184;DHT22;52989;48.796;9.806;2023-05-10T03:24:46;12.60;99.90
66184;DHT22;52989;48.796;9.806;2023-05-10T03:27:14;12.60;99.90
66184;DHT22;52989;48.796;9.806;2023-05-10T03:29:40;12.90;99.90
66184;DHT22;52989;48.796;9.806;2023-05-10T03:32:06;12.90;99.90
66184;DHT22;52989;48.796;9.806;2023-05-10T03:34:31;13.30;99.90
66184;DHT22;52989;48.796;9.806;2023-05-10T03:36:57;13.00;99.90
66184;DHT22;52989;48.796;9.806;2023-05-10T03:39:22;12.90;99.90
66184;DHT22;52989;48.796;9.806;2023-05-10T03:41:48;12.80;99.90
66184;DHT22;52989;48.796;9.806;2023-05-10T03:44:13;13.00;99.90
66184;DHT22;52989;48.796;9.806;2023-05-10T03:46:38;12.80;99.90
66184;DHT22;52989;48.796;9.806;2023-05-10T03:49:04;12.80;99.90
66184;DHT22;52989;48.796;9.806;2023-05-10T03:51:29;12.90;99.90
66184;DHT22;52989;48.796;9.806;2023-05-10T03:53:56;12.70;99.90
66184;DHT22;52989;48.796;9.806;2023-05-10T03:56:21;12.90;99.90
66184;DHT22;52989;48.796;9.806;2023-05-10T03:58:47;13.00;99.90
66184;DHT22;52989;48.796;9.806;2023-05-10T04:01:12;12.80;99.90
66184;DHT22;52989;48.796;9.806;2023-05-10T04:03:38;12.70;99.90
66184;DHT22;52989;48.796;9.806;2023-05-10T04:06:03;12.70;99.90
66184;DHT22;52989;48.796;9.806;2023-05-10T04:08:29;12.80;99.90
66184;DHT22;52989;48.796;9.806;2023-05-10T04:10:55;12.60;99.90
66184;DHT22;52989;48.796;9.806;2023-05-10T04:13:29;12.90;99.90
66184;DHT22;52989;48.796;9.806;2023-05-10T04:15:54;12.90;99.90
66184;DHT22;52989;48.796;9.806;2023-05-10T04:18:20;12.80;99.90
66184;DHT22;52989;48.796;9.806;2023-05-10T04:20:45;12.90;99.90
66184;DHT22;52989;48.796;9.806;2023-05-10T04:23:11;12.80;99.90
66184;DHT22;52989;48.796;9.806;2023-05-10T04:25:36;12.90;99.90
66184;DHT22;52989;48.796;9.806;2023-05-10T04:28:02;12.90;99.90
66184;DHT22;52989;48.796;9.806;2023-05-10T04:30:27;12.90;99.90
66184;DHT22;52989;48.796;9.806;2023-05-10T04:32:54;13.10;99.90
66184;DHT22;52989;48.796;9.806;2023-05-10T04:35:19;13.00;99.90
66184;DHT22;52989;48.796;9.806;2023-05-10T04:37:45;12.80;99.90
66184;DHT22;52989;48.796;9.806;2023-05-10T04:40:10;12.70;99.90
66184;DHT22;52989;48.796;9.806;2023-05-10T04:42:36;12.70;99.90
66184;DHT22;52989;48.796;9.806;2023-05-10T04:45:01;12.60;99.90
66184;DHT22;52989;48.796;9.806;2023-05-10T04:47:27;12.80;99.90
66184;DHT22;52989;48.796;9.806;2023-05-10T04:49:53;12.70;99.90
66184;DHT22;52989;48.796;9.806;2023-05-10T04:52:18;12.70;99.90
66184;DHT22;52989;48.796;9.806;2023-05-10T04:54:44;12.80;99.90
66184;DHT22;52989;48.796;9.806;2023-05-10T04:57:09;13.00;99.90
66184;DHT22;52989;48.796;9.806;2023-05-10T04:59:35;13.30;99.90
66184;DHT22;52989;48.796;9.806;2023-05-10T05:02:01;13.20;99.90
66184;DHT22;52989;48.796;9.806;2023-05-10T05:04:26;13.00;99.90
66184;DHT22;52989;48.796;9.806;2023-05-10T05:06:52;13.10;99.90
66184;DHT22;52989;48.796;9.806;2023-05-10T05:09:17;13.30;99.90
66184;DHT22;52989;48.796;9.806;2023-05-10T05:11:43;13.30;99.90
66184;DHT22;52989;48.796;9.806;2023-05-10T05:14:08;13.20;99.90
66184;DHT22;52989;48.796;9.806;2023-05-10T05:16:34;13.20;99.90
66184;DHT22;52989;48.796;9.806;2023-05-10T05:18:59;13.20;99.90
66184;DHT22;52989;48.796;9.806;2023-05-10T05:21:25;13.50;99.90
66184;DHT22;52989;48.796;9.806;2023-05-10T05:26:55;13.20;99.90
66184;DHT22;52989;48.796;9.806;2023-05-10T05:29:21;13.20;99.90
66184;DHT22;52989;48.796;9.806;2023-05-10T05:31:46;13.10;99.90
66184;DHT22;52989;48.796;9.806;2023-05-10T05:34:12;13.50;99.90
66184;DHT22;52989;48.796;9.806;2023-05-10T05:36:37;13.60;99.90
66184;DHT22;52989;48.796;9.806;2023-05-10T05:39:06;13.10;99.90
66184;DHT22;52989;48.796;9.806;2023-05-10T05:41:31;13.40;99.90
66184;DHT22;52989;48.796;9.806;2023-05-10T05:43:56;13.30;99.90
66184;DHT22;52989;48.796;9.806;2023-05-10T05:46:22;13.40;99.90
66184;DHT22;52989;48.796;9.806;2023-05-10T05:48:47;13.60;99.90
66184;DHT22;52989;48.796;9.806;2023-05-10T05:51:13;13.60;99.90
66184;DHT22;52989;48.796;9.806;2023-05-10T05:53:39;13.50;99.90
66184;DHT22;52989;48.796;9.806;2023-05-10T05:56:04;13.30;99.90
66184;DHT22;52989;48.796;9.806;2023-05-10T05:58:30;13.40;99.90
66184;DHT22;52989;48.796;9.806;2023-05-10T06:00:55;13.60;99.90
66184;DHT22;52989;48.796;9.806;2023-05-10T06:03:21;13.60;99.90
66184;DHT22;52989;48.796;9.806;2023-05-10T06:05:46;13.50;99.90
66184;DHT22;52989;48.796;9.806;2023-05-10T06:08:12;13.60;99.90
66184;DHT22;52989;48.796;9.806;2023-05-10T06:10:37;14.00;99.90
66184;DHT22;52989;48.796;9.806;2023-05-10T06:13:03;13.80;99.90
66184;DHT22;52989;48.796;9.806;2023-05-10T06:15:28;13.80;99.90
66184;DHT22;52989;48.796;9.806;2023-05-10T06:17:53;13.60;99.90
66184;DHT22;52989;48.796;9.806;2023-05-10T06:20:19;13.70;99.90
66184;DHT22;52989;48.796;9.806;2023-05-10T06:22:44;13.70;99.90
66184;DHT22;52989;48.796;9.806;2023-05-10T06:25:10;13.80;99.90
66184;DHT22;52989;48.796;9.806;2023-05-10T06:27:36;13.70;99.90
66184;DHT22;52989;48.796;9.806;2023-05-10T06:30:02;13.90;99.90
66184;DHT22;52989;48.796;9.806;2023-05-10T06:32:28;14.10;99.90
66184;DHT22;52989;48.796;9.806;2023-05-10T06:34:53;14.20;99.90
66184;DHT22;52989;48.796;9.806;2023-05-10T06:37:19;14.40;99.90
66184;DHT22;52989;48.796;9.806;2023-05-10T06:39:44;14.10;99.90
66184;DHT22;52989;48.796;9.806;2023-05-10T06:42:09;14.10;99.90
66184;DHT22;52989;48.796;9.806;2023-05-10T06:44:35;13.80;99.90
66184;DHT22;52989;48.796;9.806;2023-05-10T06:47:00;14.00;99.90
66184;DHT22;52989;48.796;9.806;2023-05-10T06:49:26;14.00;99.90
66184;DHT22;52989;48.796;9.806;2023-05-10T06:51:52;13.90;99.90
66184;DHT22;52989;48.796;9.806;2023-05-10T06:54:18;13.90;99.90
66184;DHT22;52989;48.796;9.806;2023-05-10T06:56:44;13.80;99.90
66184;DHT22;52989;48.796;9.806;2023-05-10T06:59:09;13.70;99.90
66184;DHT22;52989;48.796;9.806;2023-05-10T07:01:35;13.70;99.90
66184;DHT22;52989;48.796;9.806;2023-05-10T07:04:00;13.70;99.90
66184;DHT22;52989;48.796;9.806;2023-05-10T07:06:26;13.70;99.90
66184;DHT22;52989;48.796;9.806;2023-05-10T07:08:52;13.50;99.90
66184;DHT22;52989;48.796;9.806;2023-05-10T07:11:18;13.70;99.90
66184;DHT22;52989;48.796;9.806;2023-05-10T07:13:43;13.50;99.90
66184;DHT22;52989;48.796;9.806;2023-05-10T07:16:11;13.50;99.90
66184;DHT22;52989;48.796;9.806;2023-05-10T07:18:36;13.80;99.90
66184;DHT22;52989;48.796;9.806;2023-05-10T07:21:02;13.70;99.90
66184;DHT22;52989;48.796;9.806;2023-05-10T07:23:28;13.60;99.90
66184;DHT22;52989;48.796;9.806;2023-05-10T07:25:53;13.80;99.90
66184;DHT22;52989;48.796;9.806;2023-05-10T07:28:19;13.80;99.90
66184;DHT22;52989;48.796;9.806;2023-05-10T07:30:45;13.90;99.90
66184;DHT22;52989;48.796;9.806;2023-05-10T07:33:11;14.20;99.90
66184;DHT22;52989;48.796;9.806;2023-05-10T07:35:37;13.80;99.90
66184;DHT22;52989;48.796;9.806;2023-05-10T07:38:03;13.70;99.90
66184;DHT22;52989;48.796;9.806;2023-05-10T07:40:29;13.40;99.90
66184;DHT22;52989;48.796;9.806;2023-05-10T07:42:54;13.30;99.90
66184;DHT22;52989;48.796;9.806;2023-05-10T07:45:20;13.60;99.90
66184;DHT22;52989;48.796;9.806;2023-05-10T07:47:45;13.70;99.90
66184;DHT22;52989;48.796;9.806;2023-05-10T07:50:11;13.70;99.90
66184;DHT22;52989;48.796;9.806;2023-05-10T07:52:36;13.70;99.90
66184;DHT22;52989;48.796;9.806;2023-05-10T07:55:02;13.90;99.90
66184;DHT22;52989;48.796;9.806;2023-05-10T07:57:27;14.10;99.90
66184;DHT22;52989;48.796;9.806;2023-05-10T07:59:52;13.70;99.90
66184;DHT22;52989;48.796;9.806;2023-05-10T08:02:18;13.80;99.90
66184;DHT22;52989;48.796;9.806;2023-05-10T08:04:43;13.70;99.90
66184;DHT22;52989;48.796;9.806;2023-05-10T08:07:09;13.60;99.90
66184;DHT22;52989;48.796;9.806;2023-05-10T08:09:34;13.50;99.90
66184;DHT22;52989;48.796;9.806;2023-05-10T08:12:00;13.70;99.90
66184;DHT22;52989;48.796;9.806;2023-05-10T08:14:27;14.00;99.90
66184;DHT22;52989;48.796;9.806;2023-05-10T08:16:53;14.20;99.90
66184;DHT22;52989;48.796;9.806;2023-05-10T08:19:18;14.20;99.90
66184;DHT22;52989;48.796;9.806;2023-05-10T08:21:46;14.40;99.90
66184;DHT22;52989;48.796;9.806;2023-05-10T08:24:12;14.80;99.90
66184;DHT22;52989;48.796;9.806;2023-05-10T08:26:37;14.70;99.90
66184;DHT22;52989;48.796;9.806;2023-05-10T08:29:03;14.80;99.90
66184;DHT22;52989;48.796;9.806;2023-05-10T08:31:28;14.80;99.90
66184;DHT22;52989;48.796;9.806;2023-05-10T08:33:53;15.10;99.90
66184;DHT22;52989;48.796;9.806;2023-05-10T08:36:19;15.20;99.90
66184;DHT22;52989;48.796;9.806;2023-05-10T08:38:50;15.30;99.90
66184;DHT22;52989;48.796;9.806;2023-05-10T08:41:16;15.20;99.90
66184;DHT22;52989;48.796;9.806;2023-05-10T08:43:42;15.20;99.90
66184;DHT22;52989;48.796;9.806;2023-05-10T08:46:11;15.20;99.90
66184;DHT22;52989;48.796;9.806;2023-05-10T08:48:38;15.10;99.90
66184;DHT22;52989;48.796;9.806;2023-05-10T08:51:04;15.10;99.90
66184;DHT22;52989;48.796;9.806;2023-05-10T08:53:30;15.00;99.90
66184;DHT22;52989;48.796;9.806;2023-05-10T08:55:57;14.80;99.90
66184;DHT22;52989;48.796;9.806;2023-05-10T08:58:23;15.00;99.90
66184;DHT22;52989;48.796;9.806;2023-05-10T09:00:49;14.50;99.90
66184;DHT22;52989;48.796;9.806;2023-05-10T09:03:16;14.60;99.90
66184;DHT22;52989;48.796;9.806;2023-05-10T09:05:41;14.80;99.90
66184;DHT22;52989;48.796;9.806;2023-05-10T09:08:07;15.00;99.90
66184;DHT22;52989;48.796;9.806;2023-05-10T09:10:33;14.60;99.90
66184;DHT22;52989;48.796;9.806;2023-05-10T09:12:59;14.60;99.90
66184;DHT22;52989;48.796;9.806;2023-05-10T09:15:25;14.70;99.90
66184;DHT22;52989;48.796;9.806;2023-05-10T09:17:51;14.70;99.90
66184;DHT22;52989;48.796;9.806;2023-05-10T09:20:16;14.80;99.90
66184;DHT22;52989;48.796;9.806;2023-05-10T09:22:45;14.90;99.90
66184;DHT22;52989;48.796;9.806;2023-05-10T09:25:12;15.10;99.90
66184;DHT22;52989;48.796;9.806;2023-05-10T09:27:40;15.40;99.90
66184;DHT22;52989;48.796;9.806;2023-05-10T09:30:07;15.10;99.90
66184;DHT22;52989;48.796;9.806;2023-05-10T09:32:50;15.10;99.90
66184;DHT22;52989;48.796;9.806;2023-05-10T09:35:20;15.10;99.90
66184;DHT22;52989;48.796;9.806;2023-05-10T09:37:48;15.20;99.90
66184;DHT22;52989;48.796;9.806;2023-05-10T09:40:15;15.10;99.90
66184;DHT22;52989;48.796;9.806;2023-05-10T09:42:51;15.10;99.90
66184;DHT22;52989;48.796;9.806;2023-05-10T09:45:17;15.10;99.90
66184;DHT22;52989;48.796;9.806;2023-05-10T09:47:42;15.20;99.90
66184;DHT22;52989;48.796;9.806;2023-05-10T09:50:09;15.40;99.90
66184;DHT22;52989;48.796;9.806;2023-05-10T09:52:50;15.50;99.90
66184;DHT22;52989;48.796;9.806;2023-05-10T09:55:18;15.30;99.90
66184;DHT22;52989;48.796;9.806;2023-05-10T09:57:43;15.40;99.90
66184;DHT22;52989;48.796;9.806;2023-05-10T10:00:09;15.40;99.90
66184;DHT22;52989;48.796;9.806;2023-05-10T10:02:38;15.40;99.90
66184;DHT22;52989;48.796;9.806;2023-05-10T10:05:05;15.40;99.90
66184;DHT22;52989;48.796;9.806;2023-05-10T10:07:31;15.60;99.90
66184;DHT22;52989;48.796;9.806;2023-05-10T10:09:57;15.70;99.90
66184;DHT22;52989;48.796;9.806;2023-05-10T10:12:23;15.80;99.90
66184;DHT22;52989;48.796;9.806;2023-05-10T10:14:49;15.80;99.90
66184;DHT22;52989;48.796;9.806;2023-05-10T10:17:16;16.20;99.90
66184;DHT22;52989;48.796;9.806;2023-05-10T10:19:42;16.20;99.90
66184;DHT22;52989;48.796;9.806;2023-05-10T10:22:07;16.20;99.90
66184;DHT22;52989;48.796;9.806;2023-05-10T10:24:33;15.90;99.90
66184;DHT22;52989;48.796;9.806;2023-05-10T10:27:11;15.90;99.90
66184;DHT22;52989;48.796;9.806;2023-05-10T10:29:45;16.10;99.90
66184;DHT22;52989;48.796;9.806;2023-05-10T10:32:20;15.90;99.90
66184;DHT22;52989;48.796;9.806;2023-05-10T10:34:47;16.00;99.90
66184;DHT22;52989;48.796;9.806;2023-05-10T10:37:12;16.10;99.90
66184;DHT22;52989;48.796;9.806;2023-05-10T10:39:38;16.00;99.90
66184;DHT22;52989;48.796;9.806;2023-05-10T10:42:03;16.20;99.90
66184;DHT22;52989;48.796;9.806;2023-05-10T10:49:24;16.20;99.90
66184;DHT22;52989;48.796;9.806;2023-05-10T10:54:34;16.30;99.00
66184;DHT22;52989;48.796;9.806;2023-05-10T10:57:13;16.40;99.90
66184;DHT22;52989;48.796;9.806;2023-05-10T10:59:42;16.60;99.90
66184;DHT22;52989;48.796;9.806;2023-05-10T11:04:55;16.70;97.60
66184;DHT22;52989;48.796;9.806;2023-05-10T11:07:21;17.10;98.50
66184;DHT22;52989;48.796;9.806;2023-05-10T11:09:46;16.90;97.90
66184;DHT22;52989;48.796;9.806;2023-05-10T11:12:12;17.00;98.40
66184;DHT22;52989;48.796;9.806;2023-05-10T11:14:37;17.40;98.10
66184;DHT22;52989;48.796;9.806;2023-05-10T11:17:21;17.20;96.00
66184;DHT22;52989;48.796;9.806;2023-05-10T11:20:06;17.20;97.10
66184;DHT22;52989;48.796;9.806;2023-05-10T11:22:32;17.40;98.10
66184;DHT22;52989;48.796;9.806;2023-05-10T11:25:13;17.50;97.70
66184;DHT22;52989;48.796;9.806;2023-05-10T11:27:39;17.40;95.50
66184;DHT22;52989;48.796;9.806;2023-05-10T11:30:06;17.20;96.20
66184;DHT22;52989;48.796;9.806;2023-05-10T11:32:31;17.00;98.90
66184;DHT22;52989;48.796;9.806;2023-05-10T11:34:57;16.60;99.60
66184;DHT22;52989;48.796;9.806;2023-05-10T11:37:22;16.10;99.90
66184;DHT22;52989;48.796;9.806;2023-05-10T11:39:48;15.80;99.90
66184;DHT22;52989;48.796;9.806;2023-05-10T11:42:13;15.90;99.90
66184;DHT22;52989;48.796;9.806;2023-05-10T11:44:39;15.30;99.90
66184;DHT22;52989;48.796;9.806;2023-05-10T11:47:05;15.40;99.90
66184;DHT22;52989;48.796;9.806;2023-05-10T11:49:31;15.50;99.90
66184;DHT22;52989;48.796;9.806;2023-05-10T11:52:06;15.40;99.90
66184;DHT22;52989;48.796;9.806;2023-05-10T11:54:32;15.40;99.90
66184;DHT22;52989;48.796;9.806;2023-05-10T11:57:00;15.50;99.90
66184;DHT22;52989;48.796;9.806;2023-05-10T11:59:25;15.60;99.90
66184;DHT22;52989;48.796;9.806;2023-05-10T12:01:50;15.70;99.90
66184;DHT22;52989;48.796;9.806;2023-05-10T12:04:16;15.80;99.90
66184;DHT22;52989;48.796;9.806;2023-05-10T12:06:42;16.00;98.80
66184;DHT22;52989;48.796;9.806;2023-05-10T12:09:08;16.40;99.00
66184;DHT22;52989;48.796;9.806;2023-05-10T12:11:36;16.40;98.10
66184;DHT22;52989;48.796;9.806;2023-05-10T12:14:03;16.20;98.10
66184;DHT22;52989;48.796;9.806;2023-05-10T12:16:29;16.10;97.70
66184;DHT22;52989;48.796;9.806;2023-05-10T12:18:58;16.20;96.30
66184;DHT22;52989;48.796;9.806;2023-05-10T12:21:28;16.40;98.80
66184;DHT22;52989;48.796;9.806;2023-05-10T12:23:54;16.40;97.70
66184;DHT22;52989;48.796;9.806;2023-05-10T12:26:24;16.50;98.20
66184;DHT22;52989;48.796;9.806;2023-05-10T12:28:50;16.30;96.30
66184;DHT22;52989;48.796;9.806;2023-05-10T12:31:15;16.00;97.40
66184;DHT22;52989;48.796;9.806;2023-05-10T12:33:42;15.80;97.50
66184;DHT22;52989;48.796;9.806;2023-05-10T12:36:12;15.60;97.80
66184;DHT22;52989;48.796;9.806;2023-05-10T12:38:38;15.30;96.50
66184;DHT22;52989;48.796;9.806;2023-05-10T12:41:12;15.10;96.90
66184;DHT22;52989;48.796;9.806;2023-05-10T12:43:41;14.90;97.50
66184;DHT22;52989;48.796;9.806;2023-05-10T12:46:19;15.00;97.20
66184;DHT22;52989;48.796;9.806;2023-05-10T12:48:45;15.10;97.90
66184;DHT22;52989;48.796;9.806;2023-05-10T12:51:11;15.20;97.60
66184;DHT22;52989;48.796;9.806;2023-05-10T12:53:38;15.20;97.20
66184;DHT22;52989;48.796;9.806;2023-05-10T12:56:04;15.20;99.20
66184;DHT22;52989;48.796;9.806;2023-05-10T12:58:30;14.80;99.90
66184;DHT22;52989;48.796;9.806;2023-05-10T13:00:55;15.00;99.90
66184;DHT22;52989;48.796;9.806;2023-05-10T13:03:21;14.70;99.90
66184;DHT22;52989;48.796;9.806;2023-05-10T13:05:47;14.50;99.90
66184;DHT22;52989;48.796;9.806;2023-05-10T13:08:12;14.40;99.90
66184;DHT22;52989;48.796;9.806;2023-05-10T13:10:38;14.10;99.90
66184;DHT22;52989;48.796;9.806;2023-05-10T13:13:03;14.00;99.90
66184;DHT22;52989;48.796;9.806;2023-05-10T13:15:30;13.90;99.90
66184;DHT22;52989;48.796;9.806;2023-05-10T13:17:55;14.10;99.90
66184;DHT22;52989;48.796;9.806;2023-05-10T13:20:21;13.70;99.90
66184;DHT22;52989;48.796;9.806;2023-05-10T13:22:46;13.70;99.90
66184;DHT22;52989;48.796;9.806;2023-05-10T13:25:12;13.90;99.90
66184;DHT22;52989;48.796;9.806;2023-05-10T13:27:38;13.90;99.90
66184;DHT22;52989;48.796;9.806;2023-05-10T13:30:04;14.00;99.90
66184;DHT22;52989;48.796;9.806;2023-05-10T13:32:30;14.10;99.90
66184;DHT22;52989;48.796;9.806;2023-05-10T13:34:55;14.10;99.90
66184;DHT22;52989;48.796;9.806;2023-05-10T13:37:21;14.10;99.90
66184;DHT22;52989;48.796;9.806;2023-05-10T13:39:47;14.30;99.90
66184;DHT22;52989;48.796;9.806;2023-05-10T13:42:12;13.60;99.90
66184;DHT22;52989;48.796;9.806;2023-05-10T13:44:38;13.80;99.90
66184;DHT22;52989;48.796;9.806;2023-05-10T13:47:04;13.80;99.90
66184;DHT22;52989;48.796;9.806;2023-05-10T13:49:29;14.10;99.90
66184;DHT22;52989;48.796;9.806;2023-05-10T13:51:55;13.80;99.90
66184;DHT22;52989;48.796;9.806;2023-05-10T13:54:20;13.60;99.90
66184;DHT22;52989;48.796;9.806;2023-05-10T13:56:47;14.30;99.90
66184;DHT22;52989;48.796;9.806;2023-05-10T13:59:13;14.70;99.90
66184;DHT22;52989;48.796;9.806;2023-05-10T14:01:40;14.20;99.90
66184;DHT22;52989;48.796;9.806;2023-05-10T14:04:05;14.50;99.90
66184;DHT22;52989;48.796;9.806;2023-05-10T14:06:32;14.40;99.90
66184;DHT22;52989;48.796;9.806;2023-05-10T14:08:57;14.40;99.90
66184;DHT22;52989;48.796;9.806;2023-05-10T14:11:23;14.70;99.90
66184;DHT22;52989;48.796;9.806;2023-05-10T14:13:48;14.70;99.90
66184;DHT22;52989;48.796;9.806;2023-05-10T14:16:14;15.00;99.90
66184;DHT22;52989;48.796;9.806;2023-05-10T14:18:40;15.20;99.90
66184;DHT22;52989;48.796;9.806;2023-05-10T14:21:06;15.20;99.90
66184;DHT22;52989;48.796;9.806;2023-05-10T14:23:32;15.30;99.90
66184;DHT22;52989;48.796;9.806;2023-05-10T14:25:57;15.20;99.90
66184;DHT22;52989;48.796;9.806;2023-05-10T14:28:23;15.60;99.90
66184;DHT22;52989;48.796;9.806;2023-05-10T14:30:49;15.50;99.90
66184;DHT22;52989;48.796;9.806;2023-05-10T14:33:16;15.70;99.90
66184;DHT22;52989;48.796;9.806;2023-05-10T14:35:41;15.70;99.90
66184;DHT22;52989;48.796;9.806;2023-05-10T14:38:07;15.60;99.90
66184;DHT22;52989;48.796;9.806;2023-05-10T14:40:32;15.70;99.90
66184;DHT22;52989;48.796;9.806;2023-05-10T14:42:58;15.40;99.90
66184;DHT22;52989;48.796;9.806;2023-05-10T14:45:24;15.40;99.90
66184;DHT22;52989;48.796;9.806;2023-05-10T14:47:49;15.40;99.90
66184;DHT22;52989;48.796;9.806;2023-05-10T14:50:15;15.60;99.90
66184;DHT22;52989;48.796;9.806;2023-05-10T14:52:42;15.40;99.90
66184;DHT22;52989;48.796;9.806;2023-05-10T14:55:07;15.40;99.90
66184;DHT22;52989;48.796;9.806;2023-05-10T14:57:33;15.20;99.90
66184;DHT22;52989;48.796;9.806;2023-05-10T14:59:58;15.40;99.90
66184;DHT22;52989;48.796;9.806;2023-05-10T15:02:24;15.50;99.90
66184;DHT22;52989;48.796;9.806;2023-05-10T15:04:50;15.50;99.90
66184;DHT22;52989;48.796;9.806;2023-05-10T15:07:16;15.50;99.90
66184;DHT22;52989;48.796;9.806;2023-05-10T15:09:44;15.60;99.90
66184;DHT22;52989;48.796;9.806;2023-05-10T15:12:09;15.10;99.90
66184;DHT22;52989;48.796;9.806;2023-05-10T15:14:34;15.20;99.90
66184;DHT22;52989;48.796;9.806;2023-05-10T15:17:01;15.00;99.90
66184;DHT22;52989;48.796;9.806;2023-05-10T15:19:27;14.90;99.90
66184;DHT22;52989;48.796;9.806;2023-05-10T15:21:53;15.10;99.90
66184;DHT22;52989;48.796;9.806;2023-05-10T15:24:19;15.40;99.90
66184;DHT22;52989;48.796;9.806;2023-05-10T15:26:44;15.50;99.90
66184;DHT22;52989;48.796;9.806;2023-05-10T15:29:10;15.50;99.90
66184;DHT22;52989;48.796;9.806;2023-05-10T15:31:35;15.30;99.90
66184;DHT22;52989;48.796;9.806;2023-05-10T15:34:01;15.10;99.90
66184;DHT22;52989;48.796;9.806;2023-05-10T15:36:26;15.20;99.90
66184;DHT22;52989;48.796;9.806;2023-05-10T15:38:55;15.20;99.90
66184;DHT22;52989;48.796;9.806;2023-05-10T15:41:21;15.50;99.90
66184;DHT22;52989;48.796;9.806;2023-05-10T15:43:46;15.50;99.90
66184;DHT22;52989;48.796;9.806;2023-05-10T15:46:11;15.10;99.90
66184;DHT22;52989;48.796;9.806;2023-05-10T15:48:37;15.20;99.90
66184;DHT22;52989;48.796;9.806;2023-05-10T15:51:04;15.00;99.90
66184;DHT22;52989;48.796;9.806;2023-05-10T15:53:29;15.00;99.90
66184;DHT22;52989;48.796;9.806;2023-05-10T15:55:55;14.70;99.90
66184;DHT22;52989;48.796;9.806;2023-05-10T15:58:21;14.60;99.90